sensor_id;sensor_type;location;lat;lon;timestamp;temperature;humidity
45339;DHT22;31071;51.478;5.710;2022-07-23T00:01:33;16.50;99.90
45339;DHT22;31071;51.478;5.710;2022-07-23T00:03:58;16.40;99.90
45339;DHT22;31071;51.478;5.710;2022-07-23T00:06:24;16.40;99.90
45339;DHT22;31071;51.478;5.710;2022-07-23T00:08:50;16.30;99.90
45339;DHT22;31071;51.478;5.710;2022-07-23T00:11:16;16.10;99.90
45339;DHT22;31071;51.478;5.710;2022-07-23T00:13:42;16.00;99.90
45339;DHT22;31071;51.478;5.710;2022-07-23T00:16:08;16.00;99.90
45339;DHT22;31071;51.478;5.710;2022-07-23T00:18:34;16.00;99.90
45339;DHT22;31071;51.478;5.710;2022-07-23T00:20:59;16.00;99.90
45339;DHT22;31071;51.478;5.710;2022-07-23T00:23:25;15.80;99.90
45339;DHT22;31071;51.478;5.710;2022-07-23T00:25:51;15.80;99.90
45339;DHT22;31071;51.478;5.710;2022-07-23T00:28:17;15.60;99.90
45339;DHT22;31071;51.478;5.710;2022-07-23T00:30:44;15.60;99.90
45339;DHT22;31071;51.478;5.710;2022-07-23T00:33:10;15.60;99.90
45339;DHT22;31071;51.478;5.710;2022-07-23T00:35:37;15.70;99.90
45339;DHT22;31071;51.478;5.710;2022-07-23T00:38:08;15.70;99.90
45339;DHT22;31071;51.478;5.710;2022-07-23T00:40:35;15.80;99.90
45339;DHT22;31071;51.478;5.710;2022-07-23T00:43:02;15.80;99.90
45339;DHT22;31071;51.478;5.710;2022-07-23T00:45:29;15.70;99.90
45339;DHT22;31071;51.478;5.710;2022-07-23T00:47:57;15.60;99.90
45339;DHT22;31071;51.478;5.710;2022-07-23T00:50:23;15.40;99.90
45339;DHT22;31071;51.478;5.710;2022-07-23T00:52:49;15.30;99.90
45339;DHT22;31071;51.478;5.710;2022-07-23T00:55:14;15.30;99.90
45339;DHT22;31071;51.478;5.710;2022-07-23T00:57:41;15.20;99.90
45339;DHT22;31071;51.478;5.710;2022-07-23T01:00:09;15.30;99.90
45339;DHT22;31071;51.478;5.710;2022-07-23T01:02:36;15.20;99.90
45339;DHT22;31071;51.478;5.710;2022-07-23T01:05:02;15.10;99.90
45339;DHT22;31071;51.478;5.710;2022-07-23T01:07:28;15.00;99.90
45339;DHT22;31071;51.478;5.710;2022-07-23T01:09:54;14.90;99.90
45339;DHT22;31071;51.478;5.710;2022-07-23T01:12:20;14.90;99.90
45339;DHT22;31071;51.478;5.710;2022-07-23T01:14:54;14.90;99.90
45339;DHT22;31071;51.478;5.710;2022-07-23T01:17:19;14.80;99.90
45339;DHT22;31071;51.478;5.710;2022-07-23T01:19:45;14.70;99.90
45339;DHT22;31071;51.478;5.710;2022-07-23T01:22:10;14.80;99.90
45339;DHT22;31071;51.478;5.710;2022-07-23T01:24:36;14.80;99.90
45339;DHT22;31071;51.478;5.710;2022-07-23T01:27:06;14.70;99.90
45339;DHT22;31071;51.478;5.710;2022-07-23T01:29:32;14.70;99.90
45339;DHT22;31071;51.478;5.710;2022-07-23T01:31:58;14.80;99.90
45339;DHT22;31071;51.478;5.710;2022-07-23T01:34:23;14.80;99.90
45339;DHT22;31071;51.478;5.710;2022-07-23T01:36:48;14.80;99.90
45339;DHT22;31071;51.478;5.710;2022-07-23T01:39:14;14.70;99.90
45339;DHT22;31071;51.478;5.710;2022-07-23T01:41:39;14.70;99.90
45339;DHT22;31071;51.478;5.710;2022-07-23T01:44:06;14.70;99.90
45339;DHT22;31071;51.478;5.710;2022-07-23T01:46:31;14.60;99.90
45339;DHT22;31071;51.478;5.710;2022-07-23T01:48:57;14.50;99.90
45339;DHT22;31071;51.478;5.710;2022-07-23T01:51:23;14.60;99.90
45339;DHT22;31071;51.478;5.710;2022-07-23T01:53:48;14.60;99.90
45339;DHT22;31071;51.478;5.710;2022-07-23T01:56:14;14.60;99.90
45339;DHT22;31071;51.478;5.710;2022-07-23T01:58:40;14.50;99.90
45339;DHT22;31071;51.478;5.710;2022-07-23T02:01:06;14.50;99.90
45339;DHT22;31071;51.478;5.710;2022-07-23T02:03:31;14.40;99.90
45339;DHT22;31071;51.478;5.710;2022-07-23T02:05:57;14.30;99.90
45339;DHT22;31071;51.478;5.710;2022-07-23T02:08:22;14.20;99.90
45339;DHT22;31071;51.478;5.710;2022-07-23T02:10:48;14.20;99.90
45339;DHT22;31071;51.478;5.710;2022-07-23T02:13:16;14.20;99.90
45339;DHT22;31071;51.478;5.710;2022-07-23T02:15:42;14.20;99.90
45339;DHT22;31071;51.478;5.710;2022-07-23T02:18:21;14.10;99.90
45339;DHT22;31071;51.478;5.710;2022-07-23T02:20:47;14.10;99.90
45339;DHT22;31071;51.478;5.710;2022-07-23T02:23:12;14.10;99.90
45339;DHT22;31071;51.478;5.710;2022-07-23T02:25:38;14.10;99.90
45339;DHT22;31071;51.478;5.710;2022-07-23T02:28:03;14.10;99.90
45339;DHT22;31071;51.478;5.710;2022-07-23T02:30:29;14.00;99.90
45339;DHT22;31071;51.478;5.710;2022-07-23T02:32:55;13.90;99.90
45339;DHT22;31071;51.478;5.710;2022-07-23T02:35:21;13.90;99.90
45339;DHT22;31071;51.478;5.710;2022-07-23T02:37:47;13.90;99.90
45339;DHT22;31071;51.478;5.710;2022-07-23T02:40:13;13.90;99.90
45339;DHT22;31071;51.478;5.710;2022-07-23T02:42:38;13.90;99.90
45339;DHT22;31071;51.478;5.710;2022-07-23T02:45:04;13.90;99.90
45339;DHT22;31071;51.478;5.710;2022-07-23T02:47:34;13.90;99.90
45339;DHT22;31071;51.478;5.710;2022-07-23T02:49:59;13.80;99.90
45339;DHT22;31071;51.478;5.710;2022-07-23T02:52:25;13.80;99.90
45339;DHT22;31071;51.478;5.710;2022-07-23T02:54:51;13.80;99.90
45339;DHT22;31071;51.478;5.710;2022-07-23T02:57:16;13.90;99.90
45339;DHT22;31071;51.478;5.710;2022-07-23T02:59:42;13.80;99.90
45339;DHT22;31071;51.478;5.710;2022-07-23T03:02:07;13.70;99.90
45339;DHT22;31071;51.478;5.710;2022-07-23T03:04:33;13.70;99.90
45339;DHT22;31071;51.478;5.710;2022-07-23T03:06:58;13.70;99.90
45339;DHT22;31071;51.478;5.710;2022-07-23T03:09:24;13.70;99.90
45339;DHT22;31071;51.478;5.710;2022-07-23T03:11:49;13.70;99.90
45339;DHT22;31071;51.478;5.710;2022-07-23T03:14:15;13.60;99.90
45339;DHT22;31071;51.478;5.710;2022-07-23T03:16:41;13.60;99.90
45339;DHT22;31071;51.478;5.710;2022-07-23T03:19:07;13.60;99.90
45339;DHT22;31071;51.478;5.710;2022-07-23T03:21:32;13.60;99.90
45339;DHT22;31071;51.478;5.710;2022-07-23T03:23:59;13.60;99.90
45339;DHT22;31071;51.478;5.710;2022-07-23T03:26:25;13.60;99.90
45339;DHT22;31071;51.478;5.710;2022-07-23T03:28:51;13.50;99.90
45339;DHT22;31071;51.478;5.710;2022-07-23T03:31:17;13.50;99.90
45339;DHT22;31071;51.478;5.710;2022-07-23T03:33:43;13.50;99.90
45339;DHT22;31071;51.478;5.710;2022-07-23T03:36:08;13.50;99.90
45339;DHT22;31071;51.478;5.710;2022-07-23T03:38:34;13.50;99.90
45339;DHT22;31071;51.478;5.710;2022-07-23T03:40:59;13.60;99.90
45339;DHT22;31071;51.478;5.710;2022-07-23T03:43:25;13.50;99.90
45339;DHT22;31071;51.478;5.710;2022-07-23T03:45:51;13.60;99.90
45339;DHT22;31071;51.478;5.710;2022-07-23T03:48:16;13.60;99.90
45339;DHT22;31071;51.478;5.710;2022-07-23T03:50:42;13.50;99.90
45339;DHT22;31071;51.478;5.710;2022-07-23T03:53:07;13.50;99.90
45339;DHT22;31071;51.478;5.710;2022-07-23T03:55:33;13.50;99.90
45339;DHT22;31071;51.478;5.710;2022-07-23T03:58:17;13.50;99.90
45339;DHT22;31071;51.478;5.710;2022-07-23T04:00:43;13.50;99.90
45339;DHT22;31071;51.478;5.710;2022-07-23T04:03:08;13.50;99.90
45339;DHT22;31071;51.478;5.710;2022-07-23T04:05:34;13.60;99.90
45339;DHT22;31071;51.478;5.710;2022-07-23T04:08:00;13.50;99.90
45339;DHT22;31071;51.478;5.710;2022-07-23T04:10:26;13.50;99.90
45339;DHT22;31071;51.478;5.710;2022-07-23T04:12:51;13.50;99.90
45339;DHT22;31071;51.478;5.710;2022-07-23T04:15:17;13.40;99.90
45339;DHT22;31071;51.478;5.710;2022-07-23T04:17:45;13.40;99.90
45339;DHT22;31071;51.478;5.710;2022-07-23T04:20:12;13.40;99.90
45339;DHT22;31071;51.478;5.710;2022-07-23T04:22:38;13.40;99.90
45339;DHT22;31071;51.478;5.710;2022-07-23T04:25:03;13.30;99.90
45339;DHT22;31071;51.478;5.710;2022-07-23T04:27:37;13.30;99.90
45339;DHT22;31071;51.478;5.710;2022-07-23T04:30:03;13.30;99.90
45339;DHT22;31071;51.478;5.710;2022-07-23T04:32:28;13.30;99.90
45339;DHT22;31071;51.478;5.710;2022-07-23T04:34:54;13.40;99.90
45339;DHT22;31071;51.478;5.710;2022-07-23T04:37:21;13.50;99.90
45339;DHT22;31071;51.478;5.710;2022-07-23T04:39:46;13.50;99.90
45339;DHT22;31071;51.478;5.710;2022-07-23T04:42:12;13.50;99.90
45339;DHT22;31071;51.478;5.710;2022-07-23T04:44:37;13.60;99.90
45339;DHT22;31071;51.478;5.710;2022-07-23T04:47:03;13.60;99.90
45339;DHT22;31071;51.478;5.710;2022-07-23T04:49:28;13.60;99.90
45339;DHT22;31071;51.478;5.710;2022-07-23T04:51:54;13.70;99.90
45339;DHT22;31071;51.478;5.710;2022-07-23T04:54:19;13.80;99.90
45339;DHT22;31071;51.478;5.710;2022-07-23T04:56:45;13.90;99.90
45339;DHT22;31071;51.478;5.710;2022-07-23T04:59:10;13.90;99.90
45339;DHT22;31071;51.478;5.710;2022-07-23T05:01:36;13.90;99.90
45339;DHT22;31071;51.478;5.710;2022-07-23T05:04:01;13.90;99.90
45339;DHT22;31071;51.478;5.710;2022-07-23T05:06:27;13.90;99.90
45339;DHT22;31071;51.478;5.710;2022-07-23T05:08:52;14.00;99.90
45339;DHT22;31071;51.478;5.710;2022-07-23T05:11:18;14.00;99.90
45339;DHT22;31071;51.478;5.710;2022-07-23T05:13:43;14.20;99.90
45339;DHT22;31071;51.478;5.710;2022-07-23T05:16:09;14.30;99.90
45339;DHT22;31071;51.478;5.710;2022-07-23T05:18:34;14.40;99.90
45339;DHT22;31071;51.478;5.710;2022-07-23T05:21:00;14.40;99.90
45339;DHT22;31071;51.478;5.710;2022-07-23T05:23:25;14.50;99.90
45339;DHT22;31071;51.478;5.710;2022-07-23T05:25:51;14.70;99.90
45339;DHT22;31071;51.478;5.710;2022-07-23T05:28:16;14.70;99.90
45339;DHT22;31071;51.478;5.710;2022-07-23T05:30:42;14.90;99.90
45339;DHT22;31071;51.478;5.710;2022-07-23T05:33:07;14.90;99.90
45339;DHT22;31071;51.478;5.710;2022-07-23T05:35:33;15.00;99.90
45339;DHT22;31071;51.478;5.710;2022-07-23T05:38:01;15.00;99.90
45339;DHT22;31071;51.478;5.710;2022-07-23T05:40:26;15.10;99.90
45339;DHT22;31071;51.478;5.710;2022-07-23T05:42:52;15.20;99.90
45339;DHT22;31071;51.478;5.710;2022-07-23T05:45:18;15.20;99.90
45339;DHT22;31071;51.478;5.710;2022-07-23T05:47:48;15.30;99.90
45339;DHT22;31071;51.478;5.710;2022-07-23T05:50:15;15.30;99.90
45339;DHT22;31071;51.478;5.710;2022-07-23T05:52:41;15.30;99.90
45339;DHT22;31071;51.478;5.710;2022-07-23T05:55:08;15.40;99.90
45339;DHT22;31071;51.478;5.710;2022-07-23T05:57:38;15.50;99.90
45339;DHT22;31071;51.478;5.710;2022-07-23T06:00:06;15.60;99.90
45339;DHT22;31071;51.478;5.710;2022-07-23T06:02:32;15.60;99.90
45339;DHT22;31071;51.478;5.710;2022-07-23T06:04:58;15.70;99.90
45339;DHT22;31071;51.478;5.710;2022-07-23T06:07:24;15.80;99.90
45339;DHT22;31071;51.478;5.710;2022-07-23T06:09:49;15.90;99.90
45339;DHT22;31071;51.478;5.710;2022-07-23T06:12:18;16.00;99.90
45339;DHT22;31071;51.478;5.710;2022-07-23T06:14:44;16.00;99.90
45339;DHT22;31071;51.478;5.710;2022-07-23T06:17:09;16.20;99.90
45339;DHT22;31071;51.478;5.710;2022-07-23T06:19:35;16.20;99.90
45339;DHT22;31071;51.478;5.710;2022-07-23T06:22:00;16.30;99.90
45339;DHT22;31071;51.478;5.710;2022-07-23T06:24:26;16.40;99.90
45339;DHT22;31071;51.478;5.710;2022-07-23T06:26:52;16.40;99.90
45339;DHT22;31071;51.478;5.710;2022-07-23T06:29:18;16.50;99.90
45339;DHT22;31071;51.478;5.710;2022-07-23T06:31:44;16.50;99.90
45339;DHT22;31071;51.478;5.710;2022-07-23T06:34:09;16.60;99.90
45339;DHT22;31071;51.478;5.710;2022-07-23T06:36:35;16.70;99.90
45339;DHT22;31071;51.478;5.710;2022-07-23T06:39:00;16.80;99.90
45339;DHT22;31071;51.478;5.710;2022-07-23T06:41:26;16.90;99.90
45339;DHT22;31071;51.478;5.710;2022-07-23T06:43:51;17.00;99.90
45339;DHT22;31071;51.478;5.710;2022-07-23T06:46:17;17.10;99.90
45339;DHT22;31071;51.478;5.710;2022-07-23T06:48:42;17.10;99.90
45339;DHT22;31071;51.478;5.710;2022-07-23T06:51:08;17.30;99.90
45339;DHT22;31071;51.478;5.710;2022-07-23T06:53:33;17.40;99.90
45339;DHT22;31071;51.478;5.710;2022-07-23T06:55:59;17.40;99.90
45339;DHT22;31071;51.478;5.710;2022-07-23T06:58:25;17.50;99.90
45339;DHT22;31071;51.478;5.710;2022-07-23T07:00:50;17.50;99.90
45339;DHT22;31071;51.478;5.710;2022-07-23T07:03:17;17.60;99.90
45339;DHT22;31071;51.478;5.710;2022-07-23T07:05:43;17.70;99.90
45339;DHT22;31071;51.478;5.710;2022-07-23T07:08:08;17.70;99.90
45339;DHT22;31071;51.478;5.710;2022-07-23T07:10:34;17.80;99.90
45339;DHT22;31071;51.478;5.710;2022-07-23T07:12:59;17.90;99.90
45339;DHT22;31071;51.478;5.710;2022-07-23T07:15:25;17.90;99.90
45339;DHT22;31071;51.478;5.710;2022-07-23T07:18:01;18.10;99.90
45339;DHT22;31071;51.478;5.710;2022-07-23T07:20:26;18.30;99.90
45339;DHT22;31071;51.478;5.710;2022-07-23T07:22:52;18.50;99.90
45339;DHT22;31071;51.478;5.710;2022-07-23T07:25:17;18.70;99.90
45339;DHT22;31071;51.478;5.710;2022-07-23T07:27:43;18.80;99.90
45339;DHT22;31071;51.478;5.710;2022-07-23T07:30:12;19.00;99.90
45339;DHT22;31071;51.478;5.710;2022-07-23T07:32:38;19.30;99.90
45339;DHT22;31071;51.478;5.710;2022-07-23T07:35:04;19.60;99.90
45339;DHT22;31071;51.478;5.710;2022-07-23T07:37:43;19.70;99.90
45339;DHT22;31071;51.478;5.710;2022-07-23T07:40:09;19.90;99.90
45339;DHT22;31071;51.478;5.710;2022-07-23T07:42:34;20.10;99.90
45339;DHT22;31071;51.478;5.710;2022-07-23T07:45:00;20.20;99.90
45339;DHT22;31071;51.478;5.710;2022-07-23T07:47:26;20.00;99.90
45339;DHT22;31071;51.478;5.710;2022-07-23T07:49:51;20.10;99.90
45339;DHT22;31071;51.478;5.710;2022-07-23T07:52:17;20.20;99.90
45339;DHT22;31071;51.478;5.710;2022-07-23T07:54:43;20.10;99.90
45339;DHT22;31071;51.478;5.710;2022-07-23T07:57:09;20.20;99.90
45339;DHT22;31071;51.478;5.710;2022-07-23T07:59:35;20.30;99.90
45339;DHT22;31071;51.478;5.710;2022-07-23T08:02:01;20.30;99.90
45339;DHT22;31071;51.478;5.710;2022-07-23T08:04:27;20.10;99.90
45339;DHT22;31071;51.478;5.710;2022-07-23T08:06:52;20.40;99.90
45339;DHT22;31071;51.478;5.710;2022-07-23T08:09:18;20.40;99.90
45339;DHT22;31071;51.478;5.710;2022-07-23T08:11:43;20.40;99.90
45339;DHT22;31071;51.478;5.710;2022-07-23T08:14:09;20.50;99.90
45339;DHT22;31071;51.478;5.710;2022-07-23T08:16:36;20.40;99.90
45339;DHT22;31071;51.478;5.710;2022-07-23T08:19:02;20.30;99.90
45339;DHT22;31071;51.478;5.710;2022-07-23T08:21:27;20.30;99.90
45339;DHT22;31071;51.478;5.710;2022-07-23T08:23:53;20.00;99.90
45339;DHT22;31071;51.478;5.710;2022-07-23T08:26:24;20.30;99.90
45339;DHT22;31071;51.478;5.710;2022-07-23T08:28:50;20.70;99.90
45339;DHT22;31071;51.478;5.710;2022-07-23T08:31:15;20.90;99.90
45339;DHT22;31071;51.478;5.710;2022-07-23T08:33:42;21.30;99.90
45339;DHT22;31071;51.478;5.710;2022-07-23T08:36:08;21.30;99.70
45339;DHT22;31071;51.478;5.710;2022-07-23T08:38:34;21.40;99.90
45339;DHT22;31071;51.478;5.710;2022-07-23T08:41:01;21.40;99.90
45339;DHT22;31071;51.478;5.710;2022-07-23T08:43:30;21.40;99.10
45339;DHT22;31071;51.478;5.710;2022-07-23T08:45:57;21.50;98.90
45339;DHT22;31071;51.478;5.710;2022-07-23T08:48:29;21.60;99.00
45339;DHT22;31071;51.478;5.710;2022-07-23T08:50:59;21.70;99.00
45339;DHT22;31071;51.478;5.710;2022-07-23T08:53:26;21.80;98.30
45339;DHT22;31071;51.478;5.710;2022-07-23T08:55:54;22.00;98.90
45339;DHT22;31071;51.478;5.710;2022-07-23T08:58:20;22.00;96.80
45339;DHT22;31071;51.478;5.710;2022-07-23T09:00:46;21.90;97.70
45339;DHT22;31071;51.478;5.710;2022-07-23T09:03:17;21.90;97.20
45339;DHT22;31071;51.478;5.710;2022-07-23T09:05:43;22.00;96.80
45339;DHT22;31071;51.478;5.710;2022-07-23T09:10:56;22.30;97.40
45339;DHT22;31071;51.478;5.710;2022-07-23T09:13:45;22.50;95.90
45339;DHT22;31071;51.478;5.710;2022-07-23T09:16:46;22.50;94.30
45339;DHT22;31071;51.478;5.710;2022-07-23T09:19:06;22.50;94.00
45339;DHT22;31071;51.478;5.710;2022-07-23T09:21:36;22.60;93.50
45339;DHT22;31071;51.478;5.710;2022-07-23T09:24:09;22.30;94.90
45339;DHT22;31071;51.478;5.710;2022-07-23T09:26:39;22.50;92.90
45339;DHT22;31071;51.478;5.710;2022-07-23T09:29:09;22.40;94.00
45339;DHT22;31071;51.478;5.710;2022-07-23T09:34:21;22.40;93.70
45339;DHT22;31071;51.478;5.710;2022-07-23T09:36:48;22.60;93.90
45339;DHT22;31071;51.478;5.710;2022-07-23T09:39:16;22.60;92.80
45339;DHT22;31071;51.478;5.710;2022-07-23T09:41:45;22.70;92.40
45339;DHT22;31071;51.478;5.710;2022-07-23T09:44:14;22.60;92.20
45339;DHT22;31071;51.478;5.710;2022-07-23T09:46:41;22.50;91.20
45339;DHT22;31071;51.478;5.710;2022-07-23T09:49:17;22.50;93.20
45339;DHT22;31071;51.478;5.710;2022-07-23T09:51:57;22.80;93.90
45339;DHT22;31071;51.478;5.710;2022-07-23T09:56:53;24.20;90.70
45339;DHT22;31071;51.478;5.710;2022-07-23T09:59:24;24.60;89.90
45339;DHT22;31071;51.478;5.710;2022-07-23T10:01:50;25.00;87.60
45339;DHT22;31071;51.478;5.710;2022-07-23T10:04:18;25.60;83.30
45339;DHT22;31071;51.478;5.710;2022-07-23T10:06:45;25.70;82.00
45339;DHT22;31071;51.478;5.710;2022-07-23T10:09:12;24.90;83.00
45339;DHT22;31071;51.478;5.710;2022-07-23T10:11:41;25.10;82.20
45339;DHT22;31071;51.478;5.710;2022-07-23T10:14:07;24.70;82.60
45339;DHT22;31071;51.478;5.710;2022-07-23T10:16:37;24.60;86.20
45339;DHT22;31071;51.478;5.710;2022-07-23T10:19:04;24.80;83.40
45339;DHT22;31071;51.478;5.710;2022-07-23T10:21:45;24.80;83.80
45339;DHT22;31071;51.478;5.710;2022-07-23T10:27:31;23.90;82.90
45339;DHT22;31071;51.478;5.710;2022-07-23T10:30:12;23.90;85.40
45339;DHT22;31071;51.478;5.710;2022-07-23T10:35:39;24.40;85.80
45339;DHT22;31071;51.478;5.710;2022-07-23T10:41:02;24.30;85.70
45339;DHT22;31071;51.478;5.710;2022-07-23T10:43:29;24.60;83.50
45339;DHT22;31071;51.478;5.710;2022-07-23T10:45:56;24.40;83.90
45339;DHT22;31071;51.478;5.710;2022-07-23T10:48:26;24.30;80.70
45339;DHT22;31071;51.478;5.710;2022-07-23T11:02:39;25.70;79.20
45339;DHT22;31071;51.478;5.710;2022-07-23T11:05:11;26.00;76.90
45339;DHT22;31071;51.478;5.710;2022-07-23T11:10:35;26.30;78.70
45339;DHT22;31071;51.478;5.710;2022-07-23T11:13:36;26.60;73.20
45339;DHT22;31071;51.478;5.710;2022-07-23T11:32:09;28.60;63.10
45339;DHT22;31071;51.478;5.710;2022-07-23T11:34:48;29.40;62.00
45339;DHT22;31071;51.478;5.710;2022-07-23T11:37:32;29.30;57.30
45339;DHT22;31071;51.478;5.710;2022-07-23T11:40:03;29.50;58.70
45339;DHT22;31071;51.478;5.710;2022-07-23T11:42:28;30.20;55.30
45339;DHT22;31071;51.478;5.710;2022-07-23T11:44:54;30.60;54.40
45339;DHT22;31071;51.478;5.710;2022-07-23T11:47:25;31.10;53.80
45339;DHT22;31071;51.478;5.710;2022-07-23T11:49:53;30.80;54.40
45339;DHT22;31071;51.478;5.710;2022-07-23T11:52:19;31.30;53.50
45339;DHT22;31071;51.478;5.710;2022-07-23T11:54:53;31.60;52.10
45339;DHT22;31071;51.478;5.710;2022-07-23T11:57:26;31.50;54.00
45339;DHT22;31071;51.478;5.710;2022-07-23T11:59:55;31.60;52.10
45339;DHT22;31071;51.478;5.710;2022-07-23T12:02:21;32.00;52.40
45339;DHT22;31071;51.478;5.710;2022-07-23T12:04:49;32.10;52.40
45339;DHT22;31071;51.478;5.710;2022-07-23T12:07:26;32.40;50.30
45339;DHT22;31071;51.478;5.710;2022-07-23T12:09:52;32.00;49.80
45339;DHT22;31071;51.478;5.710;2022-07-23T12:12:17;31.60;51.70
45339;DHT22;31071;51.478;5.710;2022-07-23T12:14:56;32.40;50.20
45339;DHT22;31071;51.478;5.710;2022-07-23T12:17:35;32.90;50.80
45339;DHT22;31071;51.478;5.710;2022-07-23T12:20:02;33.60;48.70
45339;DHT22;31071;51.478;5.710;2022-07-23T12:22:47;33.30;47.70
45339;DHT22;31071;51.478;5.710;2022-07-23T12:25:15;33.40;47.10
45339;DHT22;31071;51.478;5.710;2022-07-23T12:27:43;33.60;48.00
45339;DHT22;31071;51.478;5.710;2022-07-23T12:30:29;33.80;47.10
45339;DHT22;31071;51.478;5.710;2022-07-23T12:32:57;34.80;45.10
45339;DHT22;31071;51.478;5.710;2022-07-23T12:35:29;34.40;43.60
45339;DHT22;31071;51.478;5.710;2022-07-23T12:38:06;33.80;44.20
45339;DHT22;31071;51.478;5.710;2022-07-23T12:40:41;33.80;44.30
45339;DHT22;31071;51.478;5.710;2022-07-23T12:43:10;33.70;44.60
45339;DHT22;31071;51.478;5.710;2022-07-23T12:45:53;33.70;46.30
45339;DHT22;31071;51.478;5.710;2022-07-23T12:48:23;34.30;44.90
45339;DHT22;31071;51.478;5.710;2022-07-23T12:51:01;35.30;43.90
45339;DHT22;31071;51.478;5.710;2022-07-23T12:53:31;33.30;45.80
45339;DHT22;31071;51.478;5.710;2022-07-23T13:01:25;33.80;44.10
45339;DHT22;31071;51.478;5.710;2022-07-23T13:04:01;33.90;45.80
45339;DHT22;31071;51.478;5.710;2022-07-23T13:06:30;34.80;43.70
45339;DHT22;31071;51.478;5.710;2022-07-23T13:08:58;34.90;43.70
45339;DHT22;31071;51.478;5.710;2022-07-23T13:11:23;34.50;43.60
45339;DHT22;31071;51.478;5.710;2022-07-23T13:13:49;35.20;43.60
45339;DHT22;31071;51.478;5.710;2022-07-23T13:16:14;34.00;41.80
45339;DHT22;31071;51.478;5.710;2022-07-23T13:18:40;35.30;41.60
45339;DHT22;31071;51.478;5.710;2022-07-23T13:21:06;35.50;40.90
45339;DHT22;31071;51.478;5.710;2022-07-23T13:23:32;34.70;41.80
45339;DHT22;31071;51.478;5.710;2022-07-23T13:25:58;35.20;40.80
45339;DHT22;31071;51.478;5.710;2022-07-23T13:28:23;35.30;41.20
45339;DHT22;31071;51.478;5.710;2022-07-23T13:30:50;35.00;40.90
45339;DHT22;31071;51.478;5.710;2022-07-23T13:33:20;34.40;41.60
45339;DHT22;31071;51.478;5.710;2022-07-23T13:35:47;34.60;41.20
45339;DHT22;31071;51.478;5.710;2022-07-23T13:38:13;35.00;41.50
45339;DHT22;31071;51.478;5.710;2022-07-23T13:40:41;35.10;41.20
45339;DHT22;31071;51.478;5.710;2022-07-23T13:43:12;32.70;42.90
45339;DHT22;31071;51.478;5.710;2022-07-23T13:45:39;31.00;46.10
45339;DHT22;31071;51.478;5.710;2022-07-23T13:48:12;29.80;47.30
45339;DHT22;31071;51.478;5.710;2022-07-23T13:50:38;29.00;49.90
45339;DHT22;31071;51.478;5.710;2022-07-23T13:53:06;29.40;49.40
45339;DHT22;31071;51.478;5.710;2022-07-23T13:55:33;30.90;47.50
45339;DHT22;31071;51.478;5.710;2022-07-23T13:57:59;32.60;45.20
45339;DHT22;31071;51.478;5.710;2022-07-23T14:00:25;32.80;44.40
45339;DHT22;31071;51.478;5.710;2022-07-23T14:02:51;32.70;44.70
45339;DHT22;31071;51.478;5.710;2022-07-23T14:05:16;33.00;45.10
45339;DHT22;31071;51.478;5.710;2022-07-23T14:07:42;33.40;43.30
45339;DHT22;31071;51.478;5.710;2022-07-23T14:10:10;33.40;43.40
45339;DHT22;31071;51.478;5.710;2022-07-23T14:12:36;32.80;44.40
45339;DHT22;31071;51.478;5.710;2022-07-23T14:15:03;33.00;44.20
45339;DHT22;31071;51.478;5.710;2022-07-23T14:17:29;32.50;44.50
45339;DHT22;31071;51.478;5.710;2022-07-23T14:19:55;32.30;45.10
45339;DHT22;31071;51.478;5.710;2022-07-23T14:22:20;31.60;45.80
45339;DHT22;31071;51.478;5.710;2022-07-23T14:24:46;31.40;45.20
45339;DHT22;31071;51.478;5.710;2022-07-23T14:27:12;31.30;46.20
45339;DHT22;31071;51.478;5.710;2022-07-23T14:29:37;30.30;46.40
45339;DHT22;31071;51.478;5.710;2022-07-23T14:32:03;29.50;48.70
45339;DHT22;31071;51.478;5.710;2022-07-23T14:34:29;29.30;49.10
45339;DHT22;31071;51.478;5.710;2022-07-23T14:36:55;29.30;49.00
45339;DHT22;31071;51.478;5.710;2022-07-23T14:39:20;28.90;50.00
45339;DHT22;31071;51.478;5.710;2022-07-23T14:41:46;28.50;51.80
45339;DHT22;31071;51.478;5.710;2022-07-23T14:44:11;28.40;54.60
45339;DHT22;31071;51.478;5.710;2022-07-23T14:46:37;28.50;53.40
45339;DHT22;31071;51.478;5.710;2022-07-23T14:49:03;28.00;53.80
45339;DHT22;31071;51.478;5.710;2022-07-23T14:51:29;28.40;54.30
45339;DHT22;31071;51.478;5.710;2022-07-23T14:53:55;28.10;54.60
45339;DHT22;31071;51.478;5.710;2022-07-23T14:56:20;28.20;51.10
45339;DHT22;31071;51.478;5.710;2022-07-23T14:58:46;28.60;51.00
45339;DHT22;31071;51.478;5.710;2022-07-23T15:01:12;28.90;50.70
45339;DHT22;31071;51.478;5.710;2022-07-23T15:03:37;28.80;50.20
45339;DHT22;31071;51.478;5.710;2022-07-23T15:06:04;29.00;51.90
45339;DHT22;31071;51.478;5.710;2022-07-23T15:08:30;29.20;50.70
45339;DHT22;31071;51.478;5.710;2022-07-23T15:10:56;29.20;50.20
45339;DHT22;31071;51.478;5.710;2022-07-23T15:13:21;28.80;51.50
45339;DHT22;31071;51.478;5.710;2022-07-23T15:15:47;28.40;51.40
45339;DHT22;31071;51.478;5.710;2022-07-23T15:18:12;27.90;53.70
45339;DHT22;31071;51.478;5.710;2022-07-23T15:20:38;27.50;54.70
45339;DHT22;31071;51.478;5.710;2022-07-23T15:23:07;27.80;53.00
45339;DHT22;31071;51.478;5.710;2022-07-23T15:25:33;28.00;52.70
45339;DHT22;31071;51.478;5.710;2022-07-23T15:27:58;28.30;52.20
45339;DHT22;31071;51.478;5.710;2022-07-23T15:30:26;28.60;51.80
45339;DHT22;31071;51.478;5.710;2022-07-23T15:32:51;28.50;53.00
45339;DHT22;31071;51.478;5.710;2022-07-23T15:35:17;28.70;51.40
45339;DHT22;31071;51.478;5.710;2022-07-23T15:37:58;28.40;50.80
45339;DHT22;31071;51.478;5.710;2022-07-23T15:40:24;28.20;51.60
45339;DHT22;31071;51.478;5.710;2022-07-23T15:42:50;28.40;52.10
45339;DHT22;31071;51.478;5.710;2022-07-23T15:45:16;28.20;53.60
45339;DHT22;31071;51.478;5.710;2022-07-23T15:47:44;28.20;51.20
45339;DHT22;31071;51.478;5.710;2022-07-23T15:50:11;27.90;52.50
45339;DHT22;31071;51.478;5.710;2022-07-23T15:52:37;27.90;53.70
45339;DHT22;31071;51.478;5.710;2022-07-23T15:55:03;27.90;53.70
45339;DHT22;31071;51.478;5.710;2022-07-23T15:57:36;27.90;54.80
45339;DHT22;31071;51.478;5.710;2022-07-23T16:00:03;27.70;54.50
45339;DHT22;31071;51.478;5.710;2022-07-23T16:02:29;27.30;55.50
45339;DHT22;31071;51.478;5.710;2022-07-23T16:04:55;27.20;55.00
45339;DHT22;31071;51.478;5.710;2022-07-23T16:07:20;27.20;54.30
45339;DHT22;31071;51.478;5.710;2022-07-23T16:09:46;27.30;55.40
45339;DHT22;31071;51.478;5.710;2022-07-23T16:12:12;27.40;56.30
45339;DHT22;31071;51.478;5.710;2022-07-23T16:14:38;27.50;56.40
45339;DHT22;31071;51.478;5.710;2022-07-23T16:17:04;27.30;56.10
45339;DHT22;31071;51.478;5.710;2022-07-23T16:19:30;27.40;55.50
45339;DHT22;31071;51.478;5.710;2022-07-23T16:21:56;27.40;56.90
45339;DHT22;31071;51.478;5.710;2022-07-23T16:24:21;27.50;54.80